createdAt,value
2022-09-05T00:02:03.226Z,2.13
2022-09-05T00:08:27.538Z,2.47
2022-09-05T00:15:17.646Z,2.85
2022-09-05T00:24:26.947Z,2.63
2022-09-05T00:28:25.651Z,2.60
2022-09-05T00:34:50.176Z,2.80
2022-09-05T00:41:02.595Z,2.40
2022-09-05T00:47:17.186Z,2.15
2022-09-05T00:53:25.837Z,2.35
2022-09-05T01:00:07.301Z,2.97
2022-09-05T01:06:26.044Z,2.63
2022-09-05T01:12:45.196Z,2.42
2022-09-05T01:19:25.125Z,2.97
2022-09-05T01:25:52.485Z,2.47
2022-09-05T01:32:06.033Z,3.15
2022-09-05T01:38:55.357Z,2.40
2022-09-05T01:45:19.465Z,2.70
2022-09-05T01:52:06.142Z,2.40
2022-09-05T01:58:43.587Z,2.10
2022-09-05T02:05:12.766Z,2.20
2022-09-05T02:11:16.407Z,2.20
2022-09-05T02:17:52.101Z,2.05
2022-09-05T02:24:31.606Z,2.30
2022-09-05T02:30:47.560Z,2.45
2022-09-05T02:37:06.318Z,2.42
2022-09-05T02:45:17.416Z,2.15
2022-09-05T02:51:42.351Z,2.53
2022-09-05T02:57:41.361Z,2.40
2022-09-05T03:03:40.902Z,2.17
2022-09-05T03:10:03.177Z,2.25
2022-09-05T03:16:10.822Z,2.60
2022-09-05T03:22:50.182Z,2.50
2022-09-05T03:29:16.556Z,2.70
2022-09-05T03:35:55.601Z,2.83
2022-09-05T03:42:32.345Z,2.88
2022-09-05T03:48:51.261Z,2.70
2022-09-05T03:57:24.630Z,2.60
2022-09-05T04:02:31.059Z,2.70
2022-09-05T04:08:32.198Z,2.50
2022-09-05T04:14:41.739Z,2.50
2022-09-05T04:20:49.949Z,2.50
2022-09-05T04:27:16.583Z,2.80
2022-09-05T04:33:36.304Z,2.58
2022-09-05T04:39:39.147Z,3.00
2022-09-05T04:45:49.787Z,2.47
2022-09-05T04:52:03.408Z,2.35
2022-09-05T04:58:12.322Z,2.38
2022-09-05T05:06:17.341Z,2.42
2022-09-05T05:14:35.392Z,2.10
2022-09-05T05:18:08.955Z,2.38
2022-09-05T05:24:08.775Z,2.33
2022-09-05T05:30:11.980Z,2.50
2022-09-05T05:36:35.573Z,2.37
2022-09-05T05:42:40.454Z,2.50
2022-09-05T05:48:56.969Z,2.72
2022-09-05T05:55:52.487Z,2.78
2022-09-05T06:02:18.617Z,3.00
2022-09-05T06:14:47.950Z,2.60
2022-09-05T06:15:45.001Z,2.58
2022-09-05T06:22:13.257Z,2.50
2022-09-05T06:28:38.724Z,2.60
2022-09-05T06:35:22.365Z,2.40
2022-09-05T06:41:52.158Z,2.70
2022-09-05T06:48:24.865Z,2.92
2022-09-05T06:55:27.084Z,2.85
2022-09-05T07:01:59.542Z,2.72
2022-09-05T07:08:18.440Z,2.58
2022-09-05T07:15:08.475Z,2.88
2022-09-05T07:21:38.781Z,2.42
2022-09-05T07:28:27.054Z,1.80
2022-09-05T07:34:22.674Z,1.90
2022-09-05T07:40:26.976Z,2.22
2022-09-05T07:46:33.610Z,1.80
2022-09-05T07:56:50.902Z,1.90
2022-09-05T07:59:04.855Z,1.42
2022-09-05T08:05:07.999Z,1.50
2022-09-05T08:11:25.510Z,1.75
2022-09-05T08:17:30.391Z,2.28
2022-09-05T08:23:55.072Z,1.90
2022-09-05T08:30:26.920Z,1.83
2022-09-05T08:36:41.297Z,1.90
2022-09-05T08:43:00.416Z,2.08
2022-09-05T08:49:48.923Z,1.52
2022-09-05T08:56:01.867Z,2.15
2022-09-05T09:02:47.378Z,1.80
2022-09-05T09:09:13.674Z,1.70
2022-09-05T09:15:37.992Z,2.03
2022-09-05T09:21:56.498Z,2.20
2022-09-05T09:28:46.753Z,1.95
2022-09-05T09:35:01.020Z,2.15
2022-09-05T09:41:37.130Z,1.67
2022-09-05T09:48:14.087Z,1.30
2022-09-05T09:54:41.476Z,1.40
2022-09-05T10:00:51.279Z,1.42
2022-09-05T10:10:45.889Z,1.55
2022-09-05T10:14:47.589Z,1.10
2022-09-05T10:21:15.645Z,1.30
2022-09-05T10:27:27.978Z,1.23
2022-09-05T10:35:17.166Z,1.27
2022-09-05T10:40:05.479Z,1.63
2022-09-05T10:46:50.279Z,1.60
2022-09-05T10:53:20.648Z,1.42
2022-09-05T11:02:20.510Z,1.40
2022-09-05T11:05:58.288Z,1.10
2022-09-05T11:12:12.103Z,1.30
2022-09-05T11:18:55.016Z,1.20
2022-09-05T11:25:02.368Z,1.20
2022-09-05T11:31:11.905Z,1.10
2022-09-05T11:40:10.064Z,1.20
2022-09-05T11:44:29.066Z,1.23
2022-09-05T11:51:04.604Z,1.45
2022-09-05T11:57:32.205Z,1.48
2022-09-05T12:04:17.098Z,1.60
2022-09-05T12:10:46.839Z,1.13
2022-09-05T12:17:10.358Z,1.17
2022-09-05T12:24:49.724Z,1.33
2022-09-05T12:30:47.633Z,1.13
2022-09-05T12:40:38.377Z,0.93
2022-09-05T12:44:00.727Z,1.10
2022-09-05T12:50:03.369Z,1.25
2022-09-05T12:58:34.634Z,1.08
2022-09-05T13:03:28.049Z,1.00
2022-09-05T13:12:57.743Z,1.23
2022-09-05T13:22:33.826Z,1.30
2022-09-05T13:28:52.868Z,1.05
2022-09-05T13:38:04.148Z,0.88
2022-09-05T13:41:59.423Z,1.13
2022-09-05T13:48:27.611Z,0.85
2022-09-05T13:54:56.754Z,1.10
2022-09-05T14:01:09.988Z,1.40
2022-09-05T14:07:47.327Z,0.77
2022-09-05T14:14:04.828Z,0.90
2022-09-05T14:20:31.805Z,1.00
2022-09-05T14:26:34.816Z,1.60
2022-09-05T14:37:34.808Z,1.13
2022-09-05T14:40:29.249Z,1.10
2022-09-05T14:47:10.000Z,0.80
2022-09-05T15:02:58.668Z,0.90
2022-09-05T15:06:33.002Z,1.02
2022-09-05T15:12:47.612Z,0.80
2022-09-05T15:18:53.331Z,1.25
2022-09-05T15:25:21.661Z,1.00
2022-09-05T15:31:25.610Z,0.85
2022-09-05T15:37:40.453Z,0.90
2022-09-05T15:44:09.319Z,1.00
2022-09-05T15:50:21.891Z,2.15
2022-09-05T16:02:31.896Z,1.85
2022-09-05T16:10:50.978Z,1.50
2022-09-05T16:16:46.087Z,1.83
2022-09-05T16:23:33.825Z,1.98
2022-09-05T16:28:03.111Z,1.80
2022-09-05T16:34:11.692Z,2.25
2022-09-05T16:40:27.607Z,1.90
2022-09-05T16:46:43.345Z,2.33
2022-09-05T16:52:53.920Z,2.40
2022-09-05T16:59:02.322Z,2.10
2022-09-05T17:05:11.367Z,2.55
2022-09-05T17:11:29.376Z,2.30
2022-09-05T17:18:19.666Z,2.20
2022-09-05T17:29:17.569Z,2.50
2022-09-05T17:31:47.336Z,2.33
2022-09-05T17:37:20.098Z,2.22
2022-09-05T17:43:29.423Z,2.22
2022-09-05T17:49:43.312Z,2.60
2022-09-05T17:55:45.072Z,2.60
2022-09-05T18:02:02.292Z,2.33
2022-09-05T18:08:04.237Z,2.60
2022-09-05T18:14:29.130Z,2.27
2022-09-05T18:21:09.345Z,2.58
2022-09-05T18:34:13.711Z,2.22
2022-09-05T18:40:43.803Z,2.35
2022-09-05T18:46:52.696Z,2.58
2022-09-05T18:53:09.379Z,2.70
2022-09-05T18:59:23.976Z,2.42
2022-09-05T19:05:38.335Z,2.70
2022-09-05T19:12:01.644Z,2.53
2022-09-05T19:18:26.778Z,2.55
2022-09-05T19:24:43.174Z,2.58
2022-09-05T19:36:51.165Z,2.75
2022-09-05T19:37:51.853Z,2.50
2022-09-05T19:47:50.277Z,2.53
2022-09-05T19:50:28.477Z,2.40
2022-09-05T19:56:38.182Z,2.55
2022-09-05T20:02:44.526Z,2.60
2022-09-05T20:08:48.199Z,2.47
2022-09-05T20:14:50.120Z,2.58
2022-09-05T20:20:53.509Z,2.55
2022-09-05T20:33:11.783Z,2.78
2022-09-05T20:43:18.014Z,2.20
2022-09-05T20:46:02.922Z,2.63
2022-09-05T20:54:27.428Z,2.95
2022-09-05T20:59:21.249Z,2.50
2022-09-05T21:05:30.823Z,2.50
2022-09-05T21:11:33.077Z,2.35
2022-09-05T21:17:36.056Z,2.70
2022-09-05T21:23:38.678Z,3.00
2022-09-05T21:29:40.499Z,2.60
2022-09-05T21:35:46.527Z,3.08
2022-09-05T21:42:02.110Z,2.95
2022-09-05T21:48:15.078Z,2.50
2022-09-05T21:56:41.555Z,2.80
2022-09-05T22:00:42.550Z,2.80
2022-09-05T22:06:48.422Z,2.90
2022-09-05T22:12:50.543Z,3.00
2022-09-05T22:18:53.348Z,2.70
2022-09-05T22:25:09.445Z,3.50
2022-09-05T22:31:11.587Z,3.30
2022-09-05T22:37:16.263Z,3.22
2022-09-05T22:43:18.048Z,3.17
2022-09-05T22:49:19.825Z,3.03
2022-09-05T22:55:21.560Z,3.22
2022-09-05T23:01:23.481Z,3.25
2022-09-05T23:07:25.259Z,3.10
2022-09-05T23:13:27.005Z,3.20
2022-09-05T23:19:30.903Z,3.13
2022-09-05T23:25:33.616Z,3.63
2022-09-05T23:31:35.393Z,3.20
2022-09-05T23:37:37.171Z,3.22
2022-09-05T23:43:38.947Z,3.22
2022-09-05T23:49:40.735Z,3.45
2022-09-05T23:55:43.373Z,3.63
